Time;durP1;ratioP1;P1;durP2;ratioP2;P2;SDS_P1;SDS_P2;PMS_P1;PMS_P2;Temp;Humidity;BMP_temperature;BMP_pressure;BME280_temperature;BME280_humidity;BME280_pressure;Samples;Min_cycle;Max_cycle;Signal;HPM_P1;HPM_P2
2024/03/07 00:02:19;;;;;;;82.80;34.50;;;6.10;99.90;;;;;;5019444;28;20432;-65
2024/03/07 00:04:45;;;;;;;73.97;32.77;;;6.10;99.90;;;;;;5025380;28;20449;-65
2024/03/07 00:07:11;;;;;;;75.90;32.37;;;6.10;99.90;;;;;;5030045;28;20255;-63
2024/03/07 00:09:37;;;;;;;76.80;36.00;;;6.10;99.90;;;;;;5028434;28;20917;-64
2024/03/07 00:12:03;;;;;;;75.00;32.23;;;6.20;99.90;;;;;;5018474;28;20172;-63
2024/03/07 00:14:29;;;;;;;80.00;33.60;;;6.20;99.90;;;;;;5024258;28;20804;-64
2024/03/07 00:17:01;;;;;;;71.53;33.30;;;6.20;99.90;;;;;;5027879;28;20426;-64
2024/03/07 00:19:27;;;;;;;80.83;34.37;;;6.10;99.90;;;;;;5030675;28;20200;-64
2024/03/07 00:21:53;;;;;;;84.13;33.90;;;6.10;99.90;;;;;;5024905;28;20445;-64
2024/03/07 00:24:20;;;;;;;74.23;32.03;;;6.10;99.90;;;;;;5022218;28;20483;-64
2024/03/07 00:26:46;;;;;;;86.73;34.40;;;6.10;99.90;;;;;;5020999;28;20427;-65
2024/03/07 00:29:12;;;;;;;85.10;36.30;;;6.10;99.90;;;;;;5024403;28;20433;-65
2024/03/07 00:31:37;;;;;;;91.73;36.20;;;6.10;99.90;;;;;;5012973;28;20259;-64
2024/03/07 00:34:03;;;;;;;74.90;33.47;;;6.10;99.90;;;;;;5014391;28;20602;-63
2024/03/07 00:36:28;;;;;;;86.83;36.77;;;6.10;99.90;;;;;;5012289;28;20191;-64
2024/03/07 00:38:54;;;;;;;80.70;33.57;;;6.10;99.90;;;;;;5011770;28;20188;-64
2024/03/07 00:41:20;;;;;;;68.10;32.80;;;6.20;99.90;;;;;;5004191;28;20180;-64
2024/03/07 00:43:46;;;;;;;71.10;29.70;;;6.10;99.90;;;;;;5011439;28;20212;-64
2024/03/07 00:46:12;;;;;;;78.20;33.40;;;6.20;99.90;;;;;;5011884;28;20960;-64
2024/03/07 00:48:38;;;;;;;84.80;34.40;;;6.10;99.90;;;;;;5013509;28;20419;-64
2024/03/07 00:51:05;;;;;;;75.33;34.10;;;6.10;99.90;;;;;;5013643;28;20193;-64
2024/03/07 00:53:31;;;;;;;97.23;34.70;;;6.10;99.90;;;;;;5006208;28;20191;-63
2024/03/07 00:55:57;;;;;;;68.73;33.53;;;6.10;99.90;;;;;;5014252;28;20811;-64
2024/03/07 00:58:23;;;;;;;74.77;33.93;;;6.10;99.90;;;;;;5015170;28;20180;-64
2024/03/07 01:00:49;;;;;;;77.47;32.60;;;6.10;99.90;;;;;;5011208;28;20510;-64
2024/03/07 01:03:17;;;;;;;95.07;33.70;;;6.10;99.90;;;;;;5015384;28;20200;-63
2024/03/07 01:05:43;;;;;;;71.97;31.10;;;6.10;99.90;;;;;;5013936;28;20489;-64
2024/03/07 01:08:09;;;;;;;77.33;32.60;;;6.10;99.90;;;;;;5012037;28;20464;-65
2024/03/07 01:10:35;;;;;;;85.43;33.07;;;6.10;99.90;;;;;;5013124;28;20450;-65
2024/03/07 01:13:02;;;;;;;88.33;34.13;;;6.10;99.90;;;;;;5010326;28;20442;-65
2024/03/07 01:15:28;;;;;;;81.20;35.50;;;6.10;99.90;;;;;;5012978;28;20286;-65
2024/03/07 01:17:54;;;;;;;90.63;32.00;;;6.10;99.90;;;;;;5012915;28;20849;-63
2024/03/07 01:20:19;;;;;;;79.53;32.40;;;6.10;99.90;;;;;;5012559;28;20426;-64
2024/03/07 01:22:45;;;;;;;79.03;33.97;;;6.10;99.90;;;;;;5012425;28;20196;-64
2024/03/07 01:25:12;;;;;;;74.13;32.40;;;6.10;99.90;;;;;;5012688;28;20311;-64
2024/03/07 01:27:38;;;;;;;72.50;34.70;;;6.10;99.90;;;;;;5012882;28;20184;-64
2024/03/07 01:30:07;;;;;;;89.97;35.33;;;6.00;99.90;;;;;;5012825;28;20791;-62
2024/03/07 01:32:33;;;;;;;72.73;30.90;;;6.00;99.90;;;;;;5005816;28;20177;-65
2024/03/07 01:34:59;;;;;;;77.90;34.67;;;6.00;99.90;;;;;;5012219;28;20446;-66
2024/03/07 01:37:24;;;;;;;74.33;33.50;;;6.00;99.90;;;;;;5012619;28;20188;-66
2024/03/07 01:39:50;;;;;;;73.23;30.67;;;6.00;99.90;;;;;;5012716;28;20211;-64
2024/03/07 01:42:16;;;;;;;78.70;34.20;;;5.90;99.90;;;;;;5012319;28;20190;-65
2024/03/07 01:44:43;;;;;;;63.57;29.43;;;6.00;99.90;;;;;;5012577;28;20212;-64
2024/03/07 01:47:10;;;;;;;73.40;33.70;;;5.90;99.90;;;;;;5011294;28;20176;-65
2024/03/07 01:49:36;;;;;;;97.40;36.07;;;5.90;99.90;;;;;;5012170;28;20435;-66
2024/03/07 01:52:04;;;;;;;74.47;32.40;;;5.90;99.90;;;;;;5012023;28;20748;-65
2024/03/07 01:54:30;;;;;;;83.07;31.50;;;5.90;99.90;;;;;;4992422;28;20474;-61
2024/03/07 01:56:56;;;;;;;69.60;29.13;;;5.80;99.90;;;;;;5008949;28;20435;-65
2024/03/07 01:59:24;;;;;;;72.60;33.30;;;5.80;99.90;;;;;;5011085;28;20518;-65
2024/03/07 02:01:53;;;;;;;50.47;27.57;;;5.70;99.90;;;;;;5010428;28;20992;-64
2024/03/07 02:04:18;;;;;;;69.17;30.60;;;5.70;99.90;;;;;;5000948;28;20513;-62
2024/03/07 02:06:44;;;;;;;60.93;32.90;;;5.70;99.90;;;;;;5003374;28;20439;-65
2024/03/07 02:09:10;;;;;;;65.93;30.90;;;5.70;99.90;;;;;;5023627;28;20186;-66
2024/03/07 02:11:36;;;;;;;63.83;32.70;;;5.60;99.90;;;;;;5017740;28;20414;-65
2024/03/07 02:14:02;;;;;;;81.20;32.63;;;5.60;99.90;;;;;;5007670;28;20697;-65
2024/03/07 02:16:28;;;;;;;72.70;29.33;;;5.50;99.90;;;;;;4992996;28;20587;-64
2024/03/07 02:18:54;;;;;;;73.43;30.50;;;5.50;99.90;;;;;;4995340;28;20439;-65
2024/03/07 02:21:20;;;;;;;80.00;30.53;;;5.50;99.90;;;;;;5004364;28;20753;-65
2024/03/07 02:23:46;;;;;;;73.13;31.80;;;5.40;99.90;;;;;;5008518;28;20467;-63
2024/03/07 02:26:11;;;;;;;64.83;32.57;;;5.30;99.90;;;;;;5011222;28;20180;-64
2024/03/07 02:28:37;;;;;;;70.97;31.63;;;5.30;99.90;;;;;;5004329;28;20212;-64
2024/03/07 02:31:03;;;;;;;75.70;31.43;;;5.30;99.90;;;;;;5010045;28;20207;-65
2024/03/07 02:33:31;;;;;;;67.87;32.57;;;5.20;99.90;;;;;;5010861;28;20627;-66
2024/03/07 02:35:57;;;;;;;83.07;33.00;;;5.20;99.90;;;;;;5011867;28;20187;-62
2024/03/07 02:38:23;;;;;;;82.83;34.77;;;5.20;99.90;;;;;;5011362;28;20514;-64
2024/03/07 02:40:48;;;;;;;76.67;31.67;;;5.20;99.90;;;;;;5009930;28;20184;-63
2024/03/07 02:43:14;;;;;;;76.20;31.70;;;5.10;99.90;;;;;;5008897;28;20204;-65
2024/03/07 02:45:40;;;;;;;78.30;34.93;;;5.10;99.90;;;;;;5009348;28;20869;-65
2024/03/07 02:48:09;;;;;;;72.80;32.87;;;5.00;99.90;;;;;;5009332;28;20271;-63
2024/03/07 02:50:37;;;;;;;81.30;33.80;;;5.00;99.90;;;;;;5010284;28;20180;-64
2024/03/07 02:53:06;;;;;;;70.30;31.03;;;5.00;99.90;;;;;;5011168;28;20451;-64
2024/03/07 02:55:32;;;;;;;75.80;35.50;;;4.90;99.90;;;;;;5011112;28;20447;-65
2024/03/07 02:57:58;;;;;;;80.83;35.00;;;4.80;99.90;;;;;;5004055;28;20434;-64
2024/03/07 03:00:29;;;;;;;62.30;31.90;;;4.80;99.90;;;;;;5024332;28;20436;-65
2024/03/07 03:02:56;;;;;;;70.07;32.73;;;4.70;99.90;;;;;;5016609;28;20463;-65
2024/03/07 03:05:22;;;;;;;92.63;38.10;;;4.70;99.90;;;;;;5026433;28;21016;-62
2024/03/07 03:07:54;;;;;;;74.70;36.17;;;4.60;99.90;;;;;;5021643;28;20426;-62
2024/03/07 03:10:25;;;;;;;72.80;35.83;;;4.60;99.90;;;;;;5022118;28;20426;-63
2024/03/07 03:12:53;;;;;;;74.47;34.33;;;4.50;99.90;;;;;;5020744;28;20462;-64
2024/03/07 03:15:20;;;;;;;82.40;37.10;;;4.50;99.90;;;;;;5016631;28;20865;-64
2024/03/07 03:17:47;;;;;;;75.60;35.23;;;4.50;99.90;;;;;;5021688;28;20422;-65
2024/03/07 03:20:24;;;;;;;75.10;34.30;;;4.40;99.90;;;;;;5012753;28;20423;-66
2024/03/07 03:22:53;;;;;;;86.97;37.40;;;4.40;99.90;;;;;;5018888;28;20973;-64
2024/03/07 03:25:20;;;;;;;80.17;35.53;;;4.40;99.90;;;;;;5019801;28;20496;-64
2024/03/07 03:27:49;;;;;;;79.40;36.13;;;4.30;99.90;;;;;;5027449;28;20520;-64
2024/03/07 03:30:18;;;;;;;86.80;37.50;;;4.30;99.90;;;;;;5020280;28;20433;-65
2024/03/07 03:32:52;;;;;;;84.47;34.57;;;4.30;99.90;;;;;;5027865;28;20428;-64
2024/03/07 03:35:19;;;;;;;83.07;34.90;;;4.30;99.90;;;;;;5018949;28;20434;-64
2024/03/07 03:37:45;;;;;;;79.00;36.40;;;4.30;99.90;;;;;;5019451;28;20513;-65
2024/03/07 03:40:15;;;;;;;75.77;33.90;;;4.30;99.90;;;;;;5027793;28;20509;-64
2024/03/07 03:42:41;;;;;;;71.03;35.37;;;4.20;99.90;;;;;;5027517;28;20446;-64
2024/03/07 03:45:09;;;;;;;88.40;36.90;;;4.20;99.90;;;;;;5015577;28;20497;-64
2024/03/07 03:47:38;;;;;;;89.87;38.70;;;4.10;99.90;;;;;;5023272;28;20433;-64
2024/03/07 03:50:05;;;;;;;85.13;37.70;;;4.10;99.90;;;;;;5030772;28;20536;-65
2024/03/07 03:52:31;;;;;;;90.60;35.13;;;4.10;99.90;;;;;;5020668;28;20451;-65
2024/03/07 03:54:58;;;;;;;78.80;36.90;;;4.00;99.90;;;;;;5028477;28;20884;-63
2024/03/07 03:57:24;;;;;;;68.60;33.90;;;4.00;99.90;;;;;;5004247;28;20817;-65
2024/03/07 03:59:49;;;;;;;75.43;35.00;;;4.00;99.90;;;;;;5013685;28;20455;-65
2024/03/07 04:02:16;;;;;;;67.53;36.27;;;3.90;99.90;;;;;;4997574;28;21014;-65
2024/03/07 04:04:42;;;;;;;75.23;33.27;;;3.90;99.90;;;;;;5014001;28;20216;-65
2024/03/07 04:07:08;;;;;;;67.87;37.23;;;3.90;99.90;;;;;;5006725;28;20790;-65
2024/03/07 04:09:34;;;;;;;63.90;32.33;;;3.80;99.90;;;;;;5015951;28;20178;-64
2024/03/07 04:11:59;;;;;;;88.87;35.73;;;3.80;99.90;;;;;;5018990;28;20254;-63
2024/03/07 04:14:25;;;;;;;74.83;34.63;;;3.70;99.90;;;;;;5011885;28;20687;-61
2024/03/07 04:16:51;;;;;;;74.77;32.17;;;3.70;99.90;;;;;;5006388;28;20188;-61
2024/03/07 04:19:20;;;;;;;70.37;36.03;;;3.70;99.90;;;;;;5011716;28;20484;-63
2024/03/07 04:21:46;;;;;;;75.07;34.87;;;3.60;99.90;;;;;;5012396;28;20180;-63
2024/03/07 04:24:12;;;;;;;69.13;33.80;;;3.60;99.90;;;;;;5011832;28;20492;-65
2024/03/07 04:26:38;;;;;;;65.50;31.77;;;3.60;99.90;;;;;;5014666;28;20184;-62
2024/03/07 04:29:03;;;;;;;62.90;33.50;;;3.50;99.90;;;;;;5014763;28;20893;-62
2024/03/07 04:31:29;;;;;;;73.07;35.83;;;3.60;99.90;;;;;;5009844;28;20799;-64
2024/03/07 04:33:55;;;;;;;59.73;32.17;;;3.60;99.90;;;;;;5020300;28;20258;-64
2024/03/07 04:36:21;;;;;;;63.23;34.17;;;3.50;99.90;;;;;;5021551;28;20539;-64
2024/03/07 04:38:46;;;;;;;54.63;30.23;;;3.50;99.90;;;;;;5023824;28;20427;-64
2024/03/07 04:41:15;;;;;;;57.10;31.97;;;3.50;99.90;;;;;;5021997;28;20188;-63
2024/03/07 04:43:42;;;;;;;63.90;31.27;;;3.40;99.90;;;;;;5021256;28;20211;-63
2024/03/07 04:46:08;;;;;;;65.37;29.97;;;3.50;99.90;;;;;;5015176;28;20424;-64
2024/03/07 04:48:33;;;;;;;54.47;28.90;;;3.50;99.90;;;;;;5018396;28;20470;-64
2024/03/07 04:50:59;;;;;;;59.63;33.83;;;3.40;99.90;;;;;;5015074;28;20179;-65
2024/03/07 04:53:25;;;;;;;51.63;29.53;;;3.40;99.90;;;;;;5024710;28;20188;-65
2024/03/07 04:55:50;;;;;;;54.00;27.17;;;3.40;99.90;;;;;;5026407;28;20262;-65
2024/03/07 04:58:16;;;;;;;56.87;29.93;;;3.40;99.90;;;;;;5025192;28;20199;-64
2024/03/07 05:00:42;;;;;;;51.70;29.40;;;3.30;99.90;;;;;;5018105;28;20435;-64
2024/03/07 05:03:09;;;;;;;51.87;30.03;;;3.30;99.90;;;;;;5014374;28;20488;-64
2024/03/07 05:05:35;;;;;;;55.03;30.57;;;3.30;99.90;;;;;;5014083;28;20211;-64
2024/03/07 05:08:00;;;;;;;61.77;31.07;;;3.30;99.90;;;;;;5020898;28;20430;-63
2024/03/07 05:10:29;;;;;;;54.33;32.17;;;3.30;99.90;;;;;;5024774;28;20251;-65
2024/03/07 05:12:55;;;;;;;57.63;30.43;;;3.30;99.90;;;;;;5020420;28;20229;-64
2024/03/07 05:15:21;;;;;;;51.90;30.40;;;3.20;99.90;;;;;;5023579;28;20439;-64
2024/03/07 05:17:46;;;;;;;54.33;29.43;;;3.20;99.90;;;;;;5021102;28;20425;-63
2024/03/07 05:20:12;;;;;;;59.93;32.00;;;3.20;99.90;;;;;;5022091;28;20180;-62
2024/03/07 05:22:47;;;;;;;57.93;30.30;;;3.10;99.90;;;;;;5021624;28;20230;-64
2024/03/07 05:25:13;;;;;;;51.70;29.73;;;3.10;99.90;;;;;;5020625;28;20270;-63
2024/03/07 05:27:39;;;;;;;50.97;28.17;;;3.10;99.90;;;;;;5020843;28;20947;-64
2024/03/07 05:30:05;;;;;;;50.30;30.40;;;3.00;99.90;;;;;;5004955;28;20514;-62
2024/03/07 05:32:34;;;;;;;50.90;30.57;;;3.00;99.90;;;;;;5010623;28;20263;-64
2024/03/07 05:34:59;;;;;;;47.70;29.67;;;3.00;99.90;;;;;;5011154;28;20423;-63
2024/03/07 05:37:25;;;;;;;51.27;27.90;;;3.00;99.90;;;;;;5012674;28;20410;-63
2024/03/07 05:39:52;;;;;;;50.10;31.87;;;3.00;99.90;;;;;;5012148;28;20227;-64
2024/03/07 05:42:18;;;;;;;45.93;28.70;;;3.00;99.90;;;;;;5012597;28;20563;-64
2024/03/07 05:44:44;;;;;;;53.70;29.57;;;3.00;99.90;;;;;;5012687;28;20482;-65
2024/03/07 05:47:10;;;;;;;53.57;28.70;;;3.00;99.90;;;;;;5006740;28;20489;-62
2024/03/07 05:49:36;;;;;;;54.33;29.67;;;2.90;99.90;;;;;;5011478;28;20416;-64
2024/03/07 05:52:03;;;;;;;56.63;28.93;;;2.90;99.90;;;;;;4998740;28;20659;-62
2024/03/07 05:54:29;;;;;;;46.33;28.23;;;2.90;99.90;;;;;;5001676;28;20447;-62
2024/03/07 05:56:55;;;;;;;53.73;28.27;;;2.90;99.90;;;;;;5018277;28;20469;-64
2024/03/07 05:59:21;;;;;;;61.00;30.33;;;3.00;99.90;;;;;;5015893;28;20455;-64
2024/03/07 06:01:48;;;;;;;51.07;31.10;;;3.00;99.90;;;;;;5019982;28;20786;-65
2024/03/07 06:04:15;;;;;;;53.70;30.77;;;3.00;99.90;;;;;;5021226;28;20195;-65
2024/03/07 06:06:41;;;;;;;45.77;28.00;;;3.00;99.90;;;;;;5005759;28;20909;-65
2024/03/07 06:09:08;;;;;;;50.27;27.97;;;3.00;99.90;;;;;;5019905;28;20562;-64
2024/03/07 06:11:38;;;;;;;47.57;27.30;;;3.00;99.90;;;;;;5015064;28;20407;-66
2024/03/07 06:14:05;;;;;;;53.03;27.77;;;3.00;99.90;;;;;;5012548;28;20467;-64
2024/03/07 06:16:32;;;;;;;48.13;28.50;;;3.00;99.90;;;;;;5013936;28;20419;-65
2024/03/07 06:18:59;;;;;;;46.37;28.27;;;3.00;99.90;;;;;;5024310;28;20419;-64
2024/03/07 06:21:25;;;;;;;43.57;26.37;;;3.00;99.90;;;;;;5023987;28;20422;-63
2024/03/07 06:23:59;;;;;;;48.63;26.30;;;3.10;99.90;;;;;;5020339;28;20465;-63
2024/03/07 06:29:16;;;;;;;41.90;25.87;;;3.10;99.90;;;;;;5024478;28;20429;-63
2024/03/07 06:31:42;;;;;;;43.83;25.70;;;3.20;99.90;;;;;;5013888;28;20414;-66
2024/03/07 06:34:11;;;;;;;42.40;24.43;;;3.20;99.90;;;;;;5012770;28;20492;-64
2024/03/07 06:36:36;;;;;;;44.50;26.97;;;3.30;99.90;;;;;;5021127;28;20426;-64
2024/03/07 06:39:06;;;;;;;39.90;26.70;;;3.40;99.90;;;;;;5018054;28;20422;-63
2024/03/07 06:41:34;;;;;;;42.23;26.33;;;3.50;99.90;;;;;;5022585;28;20225;-66
2024/03/07 06:44:00;;;;;;;42.43;25.20;;;3.80;99.90;;;;;;5019916;28;20477;-64
2024/03/07 06:46:26;;;;;;;33.20;22.03;;;4.00;99.90;;;;;;5021213;28;20585;-65
2024/03/07 06:48:51;;;;;;;36.73;22.50;;;4.10;99.90;;;;;;5018599;28;21146;-65
2024/03/07 06:51:17;;;;;;;30.67;20.67;;;4.20;99.90;;;;;;5023325;28;20178;-64
2024/03/07 06:53:45;;;;;;;31.90;20.00;;;4.50;99.90;;;;;;5008447;28;20341;-64
2024/03/07 06:56:12;;;;;;;32.07;19.20;;;4.50;99.90;;;;;;5010798;28;20855;-65
2024/03/07 06:58:38;;;;;;;34.33;21.23;;;5.00;99.90;;;;;;5005554;28;20427;-64
2024/03/07 07:01:07;;;;;;;34.07;18.93;;;5.30;99.90;;;;;;5009602;28;20504;-65
2024/03/07 07:03:32;;;;;;;28.13;18.27;;;5.30;99.90;;;;;;5009289;28;20580;-62
2024/03/07 07:05:58;;;;;;;30.10;19.07;;;5.30;99.90;;;;;;5004080;28;20476;-64
2024/03/07 07:08:24;;;;;;;26.83;16.53;;;5.40;99.90;;;;;;5026271;28;20202;-64
2024/03/07 07:10:50;;;;;;;24.43;16.07;;;5.50;99.90;;;;;;5015456;28;20424;-65
2024/03/07 07:13:16;;;;;;;24.37;16.73;;;5.70;99.90;;;;;;5001507;28;20184;-65
2024/03/07 07:15:43;;;;;;;26.13;16.70;;;6.00;99.90;;;;;;5007572;28;20199;-65
2024/03/07 07:18:10;;;;;;;28.30;17.20;;;6.00;99.90;;;;;;5009256;28;20871;-64
2024/03/07 07:20:36;;;;;;;22.37;15.10;;;6.20;99.90;;;;;;5004482;28;20416;-66
2024/03/07 07:23:03;;;;;;;27.23;15.27;;;6.20;99.90;;;;;;5008961;28;20510;-65
2024/03/07 07:25:29;;;;;;;22.83;15.83;;;6.30;99.90;;;;;;5008903;28;20252;-65
2024/03/07 07:27:55;;;;;;;22.03;14.40;;;6.60;99.90;;;;;;5009345;28;20445;-65
2024/03/07 07:30:26;;;;;;;30.33;16.93;;;6.70;99.90;;;;;;5008397;28;20862;-65
2024/03/07 07:32:53;;;;;;;20.73;16.10;;;6.80;99.90;;;;;;5009862;28;20256;-65
2024/03/07 07:35:19;;;;;;;18.87;14.93;;;6.50;99.90;;;;;;5004596;28;20481;-63
2024/03/07 07:37:47;;;;;;;19.90;15.03;;;6.80;99.90;;;;;;5008169;28;20423;-65
2024/03/07 07:40:18;;;;;;;21.73;14.23;;;7.30;99.90;;;;;;5010145;28;20181;-63
2024/03/07 07:42:47;;;;;;;22.97;14.43;;;7.20;99.90;;;;;;5009661;28;20990;-64
2024/03/07 07:45:15;;;;;;;28.10;15.10;;;7.20;99.90;;;;;;5009643;28;21161;-65
2024/03/07 07:47:51;;;;;;;18.97;14.47;;;7.60;99.90;;;;;;5010370;28;20423;-65
2024/03/07 07:50:18;;;;;;;20.60;14.10;;;8.00;99.90;;;;;;5010074;28;20450;-66
2024/03/07 07:52:48;;;;;;;18.90;13.83;;;7.80;99.90;;;;;;5010697;28;20419;-66
2024/03/07 07:55:15;;;;;;;19.53;13.40;;;7.80;99.90;;;;;;5002198;28;20432;-65
2024/03/07 07:57:48;;;;;;;19.50;14.80;;;7.90;99.90;;;;;;5008338;28;20419;-66
2024/03/07 08:00:22;;;;;;;18.50;13.30;;;8.20;99.90;;;;;;5004949;28;20415;-64
2024/03/07 08:02:59;;;;;;;17.83;12.63;;;8.00;99.90;;;;;;5008974;28;20426;-65
2024/03/07 08:05:27;;;;;;;25.07;13.93;;;8.20;99.90;;;;;;5007318;28;20450;-65
2024/03/07 08:07:56;;;;;;;16.40;12.53;;;7.80;99.90;;;;;;5001976;28;20753;-65
2024/03/07 08:10:25;;;;;;;22.77;12.47;;;8.40;99.90;;;;;;5008959;28;20412;-65
2024/03/07 08:12:51;;;;;;;17.40;12.50;;;9.00;99.90;;;;;;5009577;28;20496;-65
2024/03/07 08:15:17;;;;;;;16.73;13.40;;;8.60;99.90;;;;;;5010011;28;20437;-65
2024/03/07 08:17:46;;;;;;;19.03;14.43;;;9.00;99.90;;;;;;5012397;28;20517;-65
2024/03/07 08:20:23;;;;;;;20.43;13.57;;;9.40;99.90;;;;;;5014573;28;20226;-65
2024/03/07 08:22:52;;;;;;;20.87;12.67;;;9.50;99.90;;;;;;5013129;28;20964;-64
2024/03/07 08:25:20;;;;;;;19.67;13.97;;;9.10;99.90;;;;;;5006410;28;20472;-63
2024/03/07 08:27:48;;;;;;;17.23;13.33;;;9.30;99.90;;;;;;5013940;28;20422;-65
2024/03/07 08:30:14;;;;;;;18.10;13.80;;;9.30;99.90;;;;;;5004459;28;20443;-66
2024/03/07 08:32:51;;;;;;;16.53;12.40;;;9.20;99.90;;;;;;5001762;28;20466;-63
2024/03/07 08:35:17;;;;;;;20.70;13.10;;;9.50;99.90;;;;;;5007797;28;20468;-65
2024/03/07 08:37:45;;;;;;;16.07;12.53;;;9.60;99.90;;;;;;5011395;28;20432;-65
2024/03/07 08:40:12;;;;;;;15.77;12.27;;;9.90;99.90;;;;;;5012482;28;20432;-64
2024/03/07 08:42:41;;;;;;;18.90;12.97;;;11.30;99.90;;;;;;5010354;28;20424;-65
2024/03/07 08:45:10;;;;;;;15.73;12.30;;;11.50;99.90;;;;;;5011663;28;20447;-64
2024/03/07 08:47:36;;;;;;;18.00;12.33;;;11.60;99.90;;;;;;5010909;28;20424;-63
2024/03/07 08:50:08;;;;;;;13.70;12.00;;;11.50;99.90;;;;;;5011314;28;20929;-64
2024/03/07 08:52:36;;;;;;;14.93;11.53;;;11.30;99.90;;;;;;5011303;28;20423;-66
2024/03/07 08:55:01;;;;;;;17.80;12.60;;;11.30;99.90;;;;;;5013263;28;20443;-65
2024/03/07 08:57:27;;;;;;;14.93;10.57;;;10.60;99.90;;;;;;5005228;28;20474;-64
2024/03/07 08:59:53;;;;;;;18.00;11.87;;;11.50;99.80;;;;;;5011290;28;20194;-64
2024/03/07 09:02:18;;;;;;;13.37;10.70;;;11.80;98.40;;;;;;4994229;28;20635;-67
2024/03/07 09:04:44;;;;;;;13.97;11.77;;;11.50;96.90;;;;;;5012547;28;20216;-64
2024/03/07 09:07:10;;;;;;;15.73;12.87;;;10.00;98.70;;;;;;5004215;28;20572;-64
2024/03/07 09:09:35;;;;;;;19.37;11.83;;;9.80;99.90;;;;;;5010807;28;20635;-64
2024/03/07 09:12:02;;;;;;;15.67;10.63;;;9.90;99.90;;;;;;5010847;28;20763;-65
2024/03/07 09:14:28;;;;;;;13.50;10.53;;;10.90;97.60;;;;;;5010425;28;20196;-66
2024/03/07 09:16:54;;;;;;;14.47;10.80;;;10.50;96.90;;;;;;5010650;28;20776;-65
2024/03/07 09:19:20;;;;;;;17.07;11.40;;;11.20;96.70;;;;;;5011878;28;20188;-64
2024/03/07 09:21:50;;;;;;;14.47;10.10;;;11.00;94.50;;;;;;5012708;28;20191;-71
2024/03/07 09:24:16;;;;;;;14.90;9.50;;;10.50;95.20;;;;;;5012446;28;20498;-65
2024/03/07 09:26:41;;;;;;;12.93;9.60;;;10.90;95.90;;;;;;5006012;28;20453;-65
2024/03/07 09:29:07;;;;;;;15.57;11.77;;;11.30;95.40;;;;;;5011630;28;20935;-63
2024/03/07 09:31:33;;;;;;;15.27;10.27;;;12.10;94.50;;;;;;5011804;28;20181;-65
2024/03/07 09:33:59;;;;;;;16.70;10.50;;;12.00;92.90;;;;;;5003079;28;20657;-64
2024/03/07 09:36:25;;;;;;;12.50;10.40;;;11.20;92.30;;;;;;5006067;28;20436;-63
2024/03/07 09:38:50;;;;;;;13.90;10.93;;;10.60;93.50;;;;;;5007592;28;20196;-64
2024/03/07 09:41:16;;;;;;;16.33;11.00;;;10.20;94.20;;;;;;5010983;28;20421;-65
2024/03/07 09:43:46;;;;;;;14.17;10.70;;;9.70;94.40;;;;;;5008585;28;20243;-64
2024/03/07 09:46:12;;;;;;;13.13;10.43;;;9.80;96.80;;;;;;5009808;28;20449;-65
2024/03/07 09:48:38;;;;;;;16.03;10.90;;;10.00;94.50;;;;;;5010074;28;20419;-63
2024/03/07 09:51:07;;;;;;;17.17;10.80;;;10.00;94.00;;;;;;5010391;28;20421;-63
2024/03/07 09:53:36;;;;;;;14.33;9.83;;;9.60;94.50;;;;;;5009542;28;20422;-66
2024/03/07 09:56:04;;;;;;;15.13;10.50;;;9.20;94.70;;;;;;5002900;28;20443;-64
2024/03/07 09:58:32;;;;;;;13.43;10.90;;;9.00;94.80;;;;;;5010035;28;20422;-64
2024/03/07 10:01:01;;;;;;;14.70;10.03;;;8.60;95.40;;;;;;5009443;28;20435;-64
2024/03/07 10:03:29;;;;;;;14.47;9.57;;;8.20;94.40;;;;;;5009037;28;20505;-65
2024/03/07 10:05:55;;;;;;;14.20;9.20;;;7.90;95.70;;;;;;5011477;28;20442;-64
2024/03/07 10:08:23;;;;;;;14.40;10.33;;;7.80;95.20;;;;;;5003734;28;20908;-65
2024/03/07 10:10:50;;;;;;;15.07;9.30;;;7.70;95.60;;;;;;5004517;28;20208;-66
2024/03/07 10:13:18;;;;;;;18.70;9.93;;;7.60;96.60;;;;;;5010631;28;20529;-64
2024/03/07 10:15:44;;;;;;;11.80;9.53;;;7.50;97.40;;;;;;5005802;28;20895;-64
2024/03/07 10:18:10;;;;;;;14.50;9.97;;;7.50;97.30;;;;;;5007552;28;20438;-65
2024/03/07 10:20:37;;;;;;;13.83;10.40;;;7.60;98.10;;;;;;5004419;28;20770;-64
2024/03/07 10:23:09;;;;;;;12.47;10.17;;;7.50;97.90;;;;;;5011450;28;20952;-63
2024/03/07 10:25:34;;;;;;;13.87;9.37;;;7.70;96.90;;;;;;5010197;28;20446;-63
2024/03/07 10:28:03;;;;;;;11.17;9.00;;;7.60;96.00;;;;;;5010559;28;20425;-64
2024/03/07 10:30:29;;;;;;;15.67;9.40;;;7.50;95.50;;;;;;5006181;28;20186;-64
2024/03/07 10:32:59;;;;;;;13.30;8.83;;;7.30;95.00;;;;;;5002573;28;20424;-63
2024/03/07 10:35:25;;;;;;;12.57;9.03;;;7.30;94.50;;;;;;5003818;28;20308;-67
2024/03/07 10:37:53;;;;;;;14.70;8.57;;;7.20;94.30;;;;;;5000756;28;20958;-68
2024/03/07 10:40:22;;;;;;;12.17;9.80;;;7.00;94.10;;;;;;5009333;28;20566;-64
2024/03/07 10:42:54;;;;;;;14.23;9.43;;;7.10;94.20;;;;;;5010967;28;20428;-64
2024/03/07 10:45:23;;;;;;;12.70;8.67;;;7.20;94.90;;;;;;5001487;28;20943;-65
2024/03/07 10:47:57;;;;;;;11.33;8.30;;;7.20;94.70;;;;;;5003623;28;20444;-63
2024/03/07 10:50:34;;;;;;;11.93;9.13;;;7.40;94.20;;;;;;5009544;28;20452;-66
2024/03/07 10:53:12;;;;;;;13.10;9.30;;;7.40;94.50;;;;;;5003395;28;20923;-65
2024/03/07 10:55:48;;;;;;;11.13;9.30;;;7.40;93.70;;;;;;5009660;28;20470;-64
2024/03/07 10:58:34;;;;;;;9.30;7.77;;;7.40;94.20;;;;;;5009070;28;20831;-64
2024/03/07 11:01:03;;;;;;;13.13;9.53;;;7.50;94.10;;;;;;5009410;28;20412;-64
2024/03/07 11:03:32;;;;;;;15.80;8.90;;;7.60;93.50;;;;;;5007742;28;20886;-63
2024/03/07 11:05:59;;;;;;;10.57;8.50;;;7.50;93.80;;;;;;5008602;28;20429;-63
2024/03/07 11:08:26;;;;;;;16.93;9.73;;;7.40;94.00;;;;;;5003172;28;20439;-64
2024/03/07 11:10:51;;;;;;;13.13;8.90;;;7.50;94.20;;;;;;5003183;28;20441;-63
2024/03/07 11:13:18;;;;;;;14.27;9.70;;;7.50;93.30;;;;;;5008037;28;20419;-64
2024/03/07 11:15:48;;;;;;;18.50;8.77;;;7.40;93.80;;;;;;5009996;28;20263;-64
2024/03/07 11:18:14;;;;;;;10.00;7.77;;;7.50;93.10;;;;;;5009871;28;20781;-65
2024/03/07 11:20:40;;;;;;;11.77;9.80;;;7.40;92.60;;;;;;5009114;28;20433;-65
2024/03/07 11:23:33;;;;;;;11.33;9.23;;;7.40;93.50;;;;;;5010207;28;20641;-66
2024/03/07 11:26:09;;;;;;;14.10;9.70;;;7.60;94.30;;;;;;5010635;28;20427;-64
2024/03/07 11:28:39;;;;;;;10.23;8.90;;;7.70;94.30;;;;;;5001682;28;20428;-67
2024/03/07 11:31:24;;;;;;;15.23;9.50;;;7.60;93.90;;;;;;5003844;28;20782;-64
2024/03/07 11:34:12;;;;;;;15.37;11.00;;;7.70;93.80;;;;;;4999498;28;20832;-66
2024/03/07 11:36:45;;;;;;;10.47;9.00;;;7.80;94.50;;;;;;5000481;28;20440;-63
2024/03/07 11:39:42;;;;;;;13.10;8.87;;;7.70;94.70;;;;;;5010213;28;20420;-65
2024/03/07 11:42:33;;;;;;;14.23;10.43;;;7.70;93.90;;;;;;5006742;28;20430;-63
2024/03/07 11:44:59;;;;;;;14.10;9.77;;;7.80;94.70;;;;;;5008570;28;20994;-64
2024/03/07 11:47:29;;;;;;;15.87;11.30;;;7.90;94.00;;;;;;5008959;28;20502;-64
2024/03/07 11:49:57;;;;;;;13.73;9.90;;;7.70;92.90;;;;;;5010297;28;20441;-63
2024/03/07 11:52:27;;;;;;;13.07;9.43;;;7.70;93.90;;;;;;5011646;28;20817;-63
2024/03/07 11:54:53;;;;;;;15.50;10.37;;;7.70;95.10;;;;;;5004857;28;20455;-66
2024/03/07 11:57:19;;;;;;;12.70;10.07;;;7.80;95.10;;;;;;5013849;28;20802;-64
2024/03/07 11:59:47;;;;;;;12.03;9.30;;;7.70;94.90;;;;;;5015606;28;20185;-63
2024/03/07 12:02:15;;;;;;;13.07;9.00;;;7.70;94.10;;;;;;5020644;28;20427;-63
2024/03/07 12:04:42;;;;;;;14.50;12.87;;;7.70;94.20;;;;;;5027465;28;20465;-64
2024/03/07 12:07:10;;;;;;;15.63;10.23;;;7.70;95.00;;;;;;5007032;28;20431;-65
2024/03/07 12:09:39;;;;;;;16.33;11.00;;;7.80;95.80;;;;;;5004038;28;20509;-65
2024/03/07 12:12:09;;;;;;;12.90;10.30;;;7.90;95.90;;;;;;5003270;28;20490;-65
2024/03/07 12:14:35;;;;;;;12.07;9.80;;;7.90;94.60;;;;;;5013977;28;20546;-64
2024/03/07 12:17:04;;;;;;;17.40;10.53;;;7.90;95.00;;;;;;5012866;28;21114;-65
2024/03/07 12:19:33;;;;;;;12.57;10.57;;;7.80;95.40;;;;;;5016511;28;20174;-65
2024/03/07 12:22:02;;;;;;;12.40;10.13;;;7.80;94.00;;;;;;5013510;28;20421;-63
2024/03/07 12:24:29;;;;;;;14.67;10.90;;;7.90;93.40;;;;;;5013213;28;20471;-64
2024/03/07 12:27:10;;;;;;;15.17;11.40;;;7.90;93.20;;;;;;5013676;28;20443;-62
2024/03/07 12:29:42;;;;;;;12.13;10.00;;;7.90;93.80;;;;;;5010821;28;20420;-64
2024/03/07 12:32:10;;;;;;;16.83;10.60;;;7.80;93.90;;;;;;5014399;28;20420;-64
2024/03/07 12:34:40;;;;;;;15.07;11.47;;;7.90;93.60;;;;;;5008202;28;21009;-64
2024/03/07 12:37:09;;;;;;;14.20;11.17;;;7.90;91.80;;;;;;5014197;28;20823;-64
2024/03/07 12:39:46;;;;;;;13.33;9.57;;;7.90;91.30;;;;;;5014090;28;20420;-64
2024/03/07 12:42:16;;;;;;;14.27;11.77;;;8.00;90.40;;;;;;5014125;28;20422;-63
2024/03/07 12:44:44;;;;;;;15.03;11.10;;;7.80;92.20;;;;;;5013628;28;20509;-65